This is the latest recevied weather packets stored in our database for station/object SP4MAZ-13. If no packets are shown the sender has not sent any weather packets the latest 10 day(s).
| Time | Temp. | Humidity | Pressure | Rain* | Wind** | Luminosity | Snow |
|---|---|---|---|---|---|---|---|
| 1777915289 | 18.89° C | 47% | 2147.4 hPa | - | - | - | - |
| 1777914985 | 19.44° C | 48% | 2147.4 hPa | - | - | - | - |
| 1777914681 | 19.44° C | 46% | 2147.4 hPa | - | - | - | - |
| 1777914378 | 20° C | 45% | 2147.4 hPa | - | - | - | - |
| 1777914075 | 19.44° C | 48% | 2147.4 hPa | - | - | - | - |
| 1777913771 | 20.56° C | 42% | 2147.4 hPa | - | - | - | - |
| 1777913470 | 20.56° C | 42% | 2147.4 hPa | - | - | - | - |
| 1777913166 | 20.56° C | 42% | 2147.4 hPa | - | - | - | - |
| 1777912863 | 21.11° C | 41% | 2147.4 hPa | - | - | - | - |
| 1777912562 | 21.11° C | 39% | 2147.4 hPa | - | - | - | - |
| 1777911955 | 22.22° C | 38% | 2147.4 hPa | - | - | - | - |
| 1777911651 | 23.33° C | 33% | 2147.4 hPa | - | - | - | - |
| 1777911349 | 23.89° C | 35% | 2147.4 hPa | - | - | - | - |
| 1777911045 | 23.33° C | 34% | 2147.4 hPa | - | - | - | - |
| 1777910741 | 23.33° C | 35% | 2147.4 hPa | - | - | - | - |
| 1777910437 | 22.78° C | 34% | 2147.4 hPa | - | - | - | - |
| 1777910136 | 22.22° C | 37% | 2147.4 hPa | - | - | - | - |
| 1777909833 | 22.78° C | 36% | 2147.4 hPa | - | - | - | - |
| 1777909530 | 22.78° C | 35% | 2147.4 hPa | - | - | - | - |
| 1777909226 | 22.78° C | 36% | 2147.4 hPa | - | - | - | - |
| 1777908923 | 25° C | 31% | 2147.4 hPa | - | - | - | - |
| 1777908619 | 26.11° C | 30% | 2147.4 hPa | - | - | - | - |
| 1777908316 | 25° C | 33% | 2147.4 hPa | - | - | - | - |
| 1777908013 | 24.44° C | 34% | 2147.4 hPa | - | - | - | - |
| 1777907709 | 24.44° C | 34% | 2147.4 hPa | - | - | - | - |
* Rain since midnight (hover to see other rain measurements)
** Current wind speed in m/s (hover to see current wind gust speed)